createdAt,value
2022-10-05T00:00:47.449Z,101259.09
2022-10-05T00:03:15.350Z,101254.06
2022-10-05T00:05:44.828Z,101245.81
2022-10-05T00:08:13.957Z,101267.38
2022-10-05T00:10:42.203Z,101247.25
2022-10-05T00:13:12.905Z,101232.44
2022-10-05T00:15:39.507Z,101258.22
2022-10-05T00:18:12.929Z,101261.41
2022-10-05T00:20:41.665Z,101261.78
2022-10-05T00:23:14.999Z,101244.28
2022-10-05T00:25:41.740Z,101262.91
2022-10-05T00:28:16.760Z,101185.16
2022-10-05T00:30:44.215Z,101253.84
2022-10-05T00:33:10.727Z,101255.16
2022-10-05T00:35:37.381Z,101246.66
2022-10-05T00:38:05.670Z,101239.72
2022-10-05T00:40:51.857Z,101228.53
2022-10-05T00:43:42.850Z,101225.28
2022-10-05T00:46:15.561Z,101219.38
2022-10-05T00:48:49.056Z,101219.47
2022-10-05T00:51:24.229Z,101214.03
2022-10-05T00:54:01.762Z,101224.16
2022-10-05T00:56:48.740Z,101225.22
2022-10-05T00:59:25.643Z,101222.38
2022-10-05T01:01:57.496Z,101212.16
2022-10-05T01:04:29.132Z,101215.19
2022-10-05T01:07:07.911Z,101223.06
2022-10-05T01:09:45.828Z,101217.91
2022-10-05T01:12:23.089Z,101207.91
2022-10-05T01:14:55.819Z,101211.38
2022-10-05T01:17:28.017Z,101207.16
2022-10-05T01:20:22.402Z,101216.72
2022-10-05T01:23:05.093Z,101202.66
2022-10-05T01:25:41.101Z,101219.41
2022-10-05T01:28:15.054Z,101230.75
2022-10-05T01:30:47.843Z,101232.91
2022-10-05T01:33:23.023Z,101221.31
2022-10-05T01:35:57.563Z,101234.06
2022-10-05T01:38:34.757Z,101235.94
2022-10-05T01:41:10.106Z,101232.38
2022-10-05T01:43:44.868Z,101210.44
2022-10-05T01:46:24.825Z,101216.25
2022-10-05T01:49:10.718Z,101236.56
2022-10-05T01:51:46.811Z,101228.91
2022-10-05T01:54:22.364Z,101198.25
2022-10-05T01:57:00.495Z,101226.44
2022-10-05T01:59:43.322Z,101222.34
2022-10-05T02:02:14.107Z,101221.41
2022-10-05T02:05:02.942Z,101219.06
2022-10-05T02:07:36.088Z,101204.81
2022-10-05T02:10:08.818Z,101220.84
2022-10-05T02:12:38.111Z,101209.44
2022-10-05T02:15:13.906Z,101208.75
2022-10-05T02:17:45.474Z,101211.66
2022-10-05T02:20:17.271Z,101183.28
2022-10-05T02:22:47.115Z,101198.34
2022-10-05T02:25:16.940Z,101198.25
2022-10-05T02:27:49.811Z,101189.63
2022-10-05T02:30:19.114Z,101189.75
2022-10-05T02:32:54.582Z,101177.19
2022-10-05T02:35:22.276Z,101184.97
2022-10-05T02:38:00.918Z,101177.38
2022-10-05T02:40:40.203Z,101189.19
2022-10-05T02:43:17.933Z,101163.97
2022-10-05T02:45:55.898Z,101180.72
2022-10-05T02:48:34.038Z,101176.53
2022-10-05T02:51:07.761Z,101177.28
2022-10-05T02:53:40.738Z,101146.91
2022-10-05T02:56:18.952Z,101170.44
2022-10-05T02:58:55.575Z,101160.41
2022-10-05T03:01:27.640Z,101165.59
2022-10-05T03:04:06.852Z,101163.69
2022-10-05T03:06:40.312Z,101171.84
2022-10-05T03:09:09.436Z,101139.94
2022-10-05T03:11:46.628Z,101173.53
2022-10-05T03:14:20.303Z,101164.91
2022-10-05T03:17:03.251Z,101169.31
2022-10-05T03:19:45.590Z,101169.78
2022-10-05T03:22:23.370Z,101175.28
2022-10-05T03:25:15.925Z,101171.09
2022-10-05T03:27:48.345Z,101165.84
2022-10-05T03:30:18.780Z,101160.69
2022-10-05T03:33:01.167Z,101170.25
2022-10-05T03:35:31.811Z,101036.28
2022-10-05T03:38:10.381Z,101172.03
2022-10-05T03:40:44.194Z,101149.34
2022-10-05T03:43:26.104Z,101175.00
2022-10-05T03:45:56.697Z,101173.78
2022-10-05T03:48:31.448Z,101165.25
2022-10-05T03:51:05.836Z,101167.88
2022-10-05T03:53:38.859Z,101170.31
2022-10-05T03:56:09.828Z,101167.44
2022-10-05T03:58:42.788Z,101159.75
2022-10-05T04:01:15.922Z,101166.28
2022-10-05T04:03:48.179Z,101165.53
2022-10-05T04:06:18.571Z,101166.47
2022-10-05T04:08:51.972Z,101137.78
2022-10-05T04:11:26.437Z,101156.50
2022-10-05T04:14:00.795Z,101159.53
2022-10-05T04:16:31.311Z,101135.41
2022-10-05T04:19:04.070Z,101162.50
2022-10-05T04:21:36.449Z,101160.88
2022-10-05T04:24:11.128Z,101158.38
2022-10-05T04:26:45.353Z,101151.53
2022-10-05T04:29:17.636Z,101155.16
2022-10-05T04:31:57.919Z,101150.75
2022-10-05T04:34:52.460Z,101141.69
2022-10-05T04:37:25.423Z,101130.72
2022-10-05T04:40:08.478Z,101141.13
2022-10-05T04:42:42.599Z,101145.72
2022-10-05T04:45:20.565Z,101139.00
2022-10-05T04:48:35.194Z,101140.66
2022-10-05T04:51:17.203Z,101125.75
2022-10-05T04:53:46.740Z,101142.91
2022-10-05T04:56:18.388Z,101142.78
2022-10-05T04:59:08.823Z,101142.91
2022-10-05T05:01:51.143Z,101134.84
2022-10-05T05:04:36.211Z,101114.59
2022-10-05T05:07:18.972Z,101137.00
2022-10-05T05:10:13.405Z,101136.09
2022-10-05T05:12:52.465Z,101144.97
2022-10-05T05:15:30.734Z,101113.69
2022-10-05T05:18:33.060Z,101135.69
2022-10-05T05:21:05.954Z,101114.53
2022-10-05T05:23:41.057Z,101147.84
2022-10-05T05:26:16.693Z,101140.66
2022-10-05T05:28:50.604Z,101123.22
2022-10-05T05:31:27.449Z,101148.22
2022-10-05T05:34:03.593Z,101147.44
2022-10-05T05:36:51.021Z,101155.06
2022-10-05T05:39:28.442Z,101151.47
2022-10-05T05:42:10.313Z,101153.84
2022-10-05T05:44:46.201Z,101143.53
2022-10-05T05:47:19.553Z,101148.03
2022-10-05T05:50:06.389Z,101158.06
2022-10-05T05:52:40.628Z,101149.28
2022-10-05T05:55:18.709Z,101154.50
2022-10-05T05:57:54.289Z,101148.25
2022-10-05T06:00:23.951Z,101143.03
2022-10-05T06:03:03.966Z,101153.63
2022-10-05T06:05:33.955Z,101154.13
2022-10-05T06:08:06.859Z,101153.78
2022-10-05T06:10:40.039Z,101165.38
2022-10-05T06:13:15.606Z,101163.78
2022-10-05T06:15:46.834Z,101164.19
2022-10-05T06:18:16.835Z,101167.75
2022-10-05T06:20:49.011Z,101167.25
2022-10-05T06:23:20.160Z,101148.88
2022-10-05T06:26:07.076Z,101167.25
2022-10-05T06:28:37.238Z,101167.41
2022-10-05T06:31:14.085Z,101174.72
2022-10-05T06:33:50.675Z,101161.28
2022-10-05T06:36:35.220Z,101143.13
2022-10-05T06:39:11.008Z,101169.69
2022-10-05T06:41:57.029Z,101172.56
2022-10-05T06:44:51.228Z,101164.63
2022-10-05T06:47:38.630Z,101170.97
2022-10-05T06:50:31.577Z,101157.72
2022-10-05T06:53:27.750Z,101170.84
2022-10-05T06:55:59.246Z,101170.22
2022-10-05T06:58:43.266Z,101172.13
2022-10-05T07:01:14.515Z,101154.34
2022-10-05T07:03:56.923Z,101156.56
2022-10-05T07:06:33.470Z,101143.84
2022-10-05T07:09:18.851Z,101167.00
2022-10-05T07:12:04.757Z,101151.75
2022-10-05T07:14:53.800Z,101144.81
2022-10-05T07:17:38.608Z,101167.19
2022-10-05T07:20:15.776Z,101155.06
2022-10-05T07:23:07.122Z,101167.13
2022-10-05T07:25:40.530Z,101156.91
2022-10-05T07:28:12.885Z,101161.06
2022-10-05T07:30:50.159Z,101160.78
2022-10-05T07:33:21.806Z,101148.00
2022-10-05T07:35:55.501Z,101135.44
2022-10-05T07:38:28.520Z,101157.13
2022-10-05T07:41:02.517Z,101159.69
2022-10-05T07:44:00.533Z,101154.44
2022-10-05T07:46:32.074Z,101158.63
2022-10-05T07:49:05.887Z,101154.75
2022-10-05T07:51:37.197Z,101148.63
2022-10-05T07:54:16.776Z,101148.63
2022-10-05T07:56:46.210Z,101150.06
2022-10-05T07:59:24.934Z,101153.28
2022-10-05T08:01:59.976Z,101147.88
2022-10-05T08:04:31.461Z,101135.63
2022-10-05T08:07:02.215Z,101145.53
2022-10-05T08:09:40.782Z,101142.25
2022-10-05T08:12:19.261Z,101148.56
2022-10-05T08:14:52.124Z,101147.44
2022-10-05T08:17:26.403Z,101147.97
2022-10-05T08:20:01.002Z,101145.84
2022-10-05T08:22:34.866Z,101143.84
2022-10-05T08:25:04.546Z,101148.56
2022-10-05T08:27:38.649Z,101143.88
2022-10-05T08:30:09.137Z,101138.66
2022-10-05T08:32:40.737Z,101116.94
2022-10-05T08:35:22.935Z,101145.63
2022-10-05T08:37:50.819Z,101130.44
2022-10-05T08:40:39.608Z,101143.59
2022-10-05T08:43:17.959Z,101134.69
2022-10-05T08:46:32.758Z,101137.78
2022-10-05T08:49:19.303Z,101132.38
2022-10-05T08:52:07.773Z,101131.94
2022-10-05T08:54:45.123Z,101133.16
2022-10-05T08:57:42.432Z,101134.13
2022-10-05T09:00:12.666Z,101118.19
2022-10-05T09:03:04.079Z,101127.59
2022-10-05T09:06:03.902Z,101128.84
2022-10-05T09:08:51.697Z,101130.75
2022-10-05T09:11:23.689Z,101121.78
2022-10-05T09:14:14.426Z,101130.38
2022-10-05T09:16:52.673Z,101123.75
2022-10-05T09:19:51.644Z,101122.47
2022-10-05T09:22:35.582Z,101114.13
2022-10-05T09:25:14.646Z,101124.44
2022-10-05T09:27:49.232Z,101115.03
2022-10-05T09:30:22.913Z,101116.50
2022-10-05T09:33:11.243Z,101119.88
2022-10-05T09:36:06.856Z,101115.50
2022-10-05T09:38:50.417Z,101105.66
2022-10-05T09:41:51.881Z,101102.63
2022-10-05T09:44:51.562Z,101108.38
2022-10-05T09:47:44.078Z,101089.66
2022-10-05T09:50:49.327Z,101089.44
2022-10-05T09:53:39.052Z,101088.72
2022-10-05T09:56:29.788Z,101082.56
2022-10-05T09:59:27.561Z,101076.94
2022-10-05T10:02:14.640Z,101073.97
2022-10-05T10:05:09.031Z,101067.31
2022-10-05T10:08:09.106Z,101063.63
2022-10-05T10:10:59.967Z,101048.63
2022-10-05T10:13:52.504Z,101063.13
2022-10-05T10:16:32.192Z,101058.28
2022-10-05T10:19:32.234Z,101025.75
2022-10-05T10:22:16.507Z,101049.94
2022-10-05T10:25:16.870Z,101055.09
2022-10-05T10:27:59.334Z,101050.41
2022-10-05T10:30:45.257Z,101063.44
2022-10-05T10:33:29.078Z,101056.41
2022-10-05T10:36:03.019Z,101051.03
2022-10-05T10:38:39.836Z,101040.97
2022-10-05T10:41:34.463Z,101047.97
2022-10-05T10:44:57.410Z,101049.06
2022-10-05T10:47:54.103Z,101045.22
2022-10-05T10:50:49.101Z,101051.13
2022-10-05T10:53:51.748Z,101043.16
2022-10-05T10:56:29.553Z,101034.03
2022-10-05T10:59:35.000Z,101042.28
2022-10-05T11:02:26.328Z,101026.94
2022-10-05T11:05:27.606Z,101036.84
2022-10-05T11:08:08.476Z,101033.56
2022-10-05T11:10:58.948Z,101031.63
2022-10-05T11:13:41.616Z,101044.53
2022-10-05T11:16:49.877Z,101034.00
2022-10-05T11:20:02.916Z,101023.81
2022-10-05T11:22:43.613Z,101020.03
2022-10-05T11:25:51.390Z,101012.09
2022-10-05T11:28:37.564Z,100997.38
2022-10-05T11:31:35.641Z,101012.72
2022-10-05T11:34:43.192Z,100991.59
2022-10-05T11:37:43.170Z,101010.63
2022-10-05T11:40:32.816Z,100992.97
2022-10-05T11:43:22.020Z,101012.47
2022-10-05T11:46:00.511Z,100996.66
2022-10-05T11:48:45.374Z,100999.06
2022-10-05T11:51:37.271Z,100988.78
2022-10-05T11:54:24.043Z,100981.41
2022-10-05T11:56:59.152Z,100968.28
2022-10-05T11:59:32.882Z,100967.63
2022-10-05T12:02:26.916Z,100962.00
2022-10-05T12:05:08.407Z,100975.66
2022-10-05T12:07:43.287Z,100963.09
2022-10-05T12:10:26.796Z,100956.97
2022-10-05T12:13:06.207Z,100955.13
2022-10-05T12:15:43.064Z,100936.88
2022-10-05T12:18:15.150Z,100941.34
2022-10-05T12:20:49.215Z,100940.06
2022-10-05T12:23:22.920Z,100946.69
2022-10-05T12:25:56.420Z,100935.41
2022-10-05T12:28:36.454Z,100933.69
2022-10-05T12:31:17.275Z,100942.63
2022-10-05T12:33:50.431Z,100937.06
2022-10-05T12:36:22.981Z,100922.78
2022-10-05T12:38:57.687Z,100900.91
2022-10-05T12:41:32.532Z,100920.06
2022-10-05T12:44:16.382Z,100927.59
2022-10-05T12:46:53.726Z,100917.25
2022-10-05T12:49:32.761Z,100919.50
2022-10-05T12:52:02.001Z,100923.16
2022-10-05T12:54:42.123Z,100901.91
2022-10-05T12:57:14.541Z,100920.94
2022-10-05T12:59:46.961Z,100909.44
2022-10-05T13:02:27.094Z,100905.41
2022-10-05T13:04:59.662Z,100891.94
2022-10-05T13:07:39.561Z,100905.69
2022-10-05T13:10:20.233Z,100893.88
2022-10-05T13:12:56.662Z,100892.41
2022-10-05T13:15:29.420Z,100881.94
2022-10-05T13:18:08.104Z,100887.47
2022-10-05T13:20:44.131Z,100867.50
2022-10-05T13:23:18.227Z,100874.34
2022-10-05T13:25:52.391Z,100888.47
2022-10-05T13:28:24.469Z,100879.19
2022-10-05T13:31:02.916Z,100875.53
2022-10-05T13:33:53.310Z,100876.47
2022-10-05T13:36:28.502Z,100874.44
2022-10-05T13:39:00.599Z,100871.69
2022-10-05T13:41:37.671Z,100868.84
2022-10-05T13:44:15.810Z,100861.84
2022-10-05T13:46:48.551Z,100865.78
2022-10-05T13:49:23.121Z,100860.00
2022-10-05T13:51:57.990Z,100843.47
2022-10-05T13:54:36.055Z,100852.22
2022-10-05T13:57:14.752Z,100847.25
2022-10-05T13:59:47.645Z,100827.41
2022-10-05T14:02:21.619Z,100845.47
2022-10-05T14:04:50.169Z,100838.25
2022-10-05T14:07:29.857Z,100827.25
2022-10-05T14:09:57.247Z,100827.50
2022-10-05T14:12:25.445Z,100828.91
2022-10-05T14:14:53.800Z,100826.88
2022-10-05T14:17:46.203Z,100825.00
2022-10-05T14:20:25.249Z,100826.88
2022-10-05T14:22:56.191Z,100838.00
2022-10-05T14:25:23.342Z,100816.50
2022-10-05T14:27:59.589Z,100822.88
2022-10-05T14:30:27.995Z,100813.81
2022-10-05T14:33:05.811Z,100826.84
2022-10-05T14:35:45.825Z,100826.44
2022-10-05T14:38:18.876Z,100826.44
2022-10-05T14:40:45.571Z,100823.75
2022-10-05T14:43:20.407Z,100817.31
2022-10-05T14:45:54.609Z,100809.47
2022-10-05T14:48:24.897Z,100802.22
2022-10-05T14:50:54.474Z,100807.84
2022-10-05T14:53:23.238Z,100806.38
2022-10-05T14:56:08.831Z,100808.66
2022-10-05T14:58:51.471Z,100805.94
2022-10-05T15:01:25.707Z,100779.81
2022-10-05T15:04:04.017Z,100797.53
2022-10-05T15:06:36.978Z,100815.16
2022-10-05T15:09:23.063Z,100781.78
2022-10-05T15:11:52.753Z,100786.69
2022-10-05T15:14:22.224Z,100804.94
2022-10-05T15:16:51.339Z,100819.22
2022-10-05T15:19:39.700Z,100828.88
2022-10-05T15:22:19.000Z,100833.41
2022-10-05T15:24:55.983Z,100829.66
2022-10-05T15:27:29.371Z,100837.13
2022-10-05T15:30:03.225Z,100836.38
2022-10-05T15:32:43.139Z,100824.28
2022-10-05T15:35:33.039Z,100818.50
2022-10-05T15:38:08.971Z,100831.44
2022-10-05T15:40:41.757Z,100835.06
2022-10-05T15:43:13.702Z,100840.06
2022-10-05T15:45:52.950Z,100847.25
2022-10-05T15:48:25.038Z,100837.34
2022-10-05T15:50:59.539Z,100847.22
2022-10-05T15:53:35.815Z,100851.09
2022-10-05T15:56:07.093Z,100850.31
2022-10-05T15:58:50.811Z,100830.31
2022-10-05T16:01:21.239Z,100855.38
2022-10-05T16:03:56.834Z,100856.69
2022-10-05T16:06:33.456Z,100855.66
2022-10-05T16:09:09.430Z,100838.91
2022-10-05T16:11:57.766Z,100870.81
2022-10-05T16:14:49.885Z,100870.84
2022-10-05T16:17:26.304Z,100856.88
2022-10-05T16:20:02.909Z,100875.28
2022-10-05T16:22:43.246Z,100877.06
2022-10-05T16:25:19.604Z,100882.13
2022-10-05T16:28:08.308Z,100890.56
2022-10-05T16:30:47.522Z,100904.03
2022-10-05T16:33:21.259Z,100895.97
2022-10-05T16:35:59.727Z,100916.41
2022-10-05T16:38:36.708Z,100916.31
2022-10-05T16:41:07.791Z,100916.34
2022-10-05T16:43:44.966Z,100919.88
2022-10-05T16:46:22.229Z,100916.38
2022-10-05T16:48:57.895Z,100920.81
2022-10-05T16:51:32.724Z,100918.13
2022-10-05T16:54:10.582Z,100919.56
2022-10-05T16:56:42.613Z,100921.03
2022-10-05T16:59:44.015Z,100925.84
2022-10-05T17:02:22.554Z,100926.78
2022-10-05T17:04:59.882Z,100920.75
2022-10-05T17:07:53.097Z,100935.88
2022-10-05T17:10:40.086Z,100927.28
2022-10-05T17:13:23.236Z,100918.72
2022-10-05T17:16:03.661Z,100943.44
2022-10-05T17:18:58.433Z,100949.66
2022-10-05T17:21:30.315Z,100945.56
2022-10-05T17:24:04.763Z,100947.59
2022-10-05T17:26:54.262Z,100950.31
2022-10-05T17:29:27.853Z,100934.88
2022-10-05T17:32:30.127Z,100946.09
2022-10-05T17:35:20.149Z,100962.97
2022-10-05T17:38:10.053Z,100965.50
2022-10-05T17:40:38.873Z,100964.47
2022-10-05T17:43:23.680Z,100963.00
2022-10-05T17:45:54.367Z,100974.69
2022-10-05T17:48:40.209Z,100970.53
2022-10-05T17:51:37.627Z,100989.22
2022-10-05T17:54:21.653Z,100994.72
2022-10-05T17:57:22.447Z,100996.41
2022-10-05T17:59:59.417Z,101009.75
2022-10-05T18:02:40.497Z,101015.91
2022-10-05T18:05:23.616Z,101012.06
2022-10-05T18:08:25.803Z,101001.88
2022-10-05T18:11:13.622Z,101017.75
2022-10-05T18:13:45.533Z,100996.91
2022-10-05T18:16:51.959Z,101029.06
2022-10-05T18:19:21.899Z,101003.41
2022-10-05T18:22:03.510Z,101036.59
2022-10-05T18:24:50.688Z,101035.91
2022-10-05T18:27:49.593Z,101042.25
2022-10-05T18:30:21.640Z,101051.75
2022-10-05T18:33:24.945Z,101049.25
2022-10-05T18:36:07.608Z,101051.25
2022-10-05T18:38:44.097Z,100958.47
2022-10-05T18:41:21.105Z,101060.91
2022-10-05T18:43:59.693Z,101067.09
2022-10-05T18:46:38.570Z,101071.75
2022-10-05T18:49:27.309Z,101071.22
2022-10-05T18:52:02.356Z,101070.56
2022-10-05T18:54:51.998Z,101079.69
2022-10-05T18:57:51.081Z,101092.38
2022-10-05T19:00:19.514Z,101096.88
2022-10-05T19:02:50.275Z,101095.69
2022-10-05T19:05:46.907Z,101088.69
2022-10-05T19:08:24.942Z,101118.84
2022-10-05T19:10:55.218Z,101094.59
2022-10-05T19:13:33.988Z,101115.63
2022-10-05T19:16:18.308Z,101111.41
2022-10-05T19:19:06.940Z,101116.41
2022-10-05T19:21:43.518Z,101113.59
2022-10-05T19:24:29.010Z,101119.41
2022-10-05T19:27:06.458Z,101116.00
2022-10-05T19:29:46.974Z,101082.78
2022-10-05T19:32:22.736Z,101091.59
2022-10-05T19:35:04.997Z,101085.09
2022-10-05T19:37:43.562Z,101102.94
2022-10-05T19:40:18.022Z,101105.88
2022-10-05T19:43:00.989Z,101119.56
2022-10-05T19:45:29.373Z,101132.88
2022-10-05T19:48:14.145Z,101127.81
2022-10-05T19:50:53.780Z,101141.88
2022-10-05T19:53:25.594Z,101138.41
2022-10-05T19:55:52.438Z,101138.56
2022-10-05T19:58:21.723Z,101118.19
2022-10-05T20:00:55.179Z,101155.69
2022-10-05T20:03:24.793Z,101143.16
2022-10-05T20:05:51.314Z,101157.03
2022-10-05T20:08:20.153Z,101161.09
2022-10-05T20:11:04.656Z,101146.56
2022-10-05T20:13:31.466Z,101167.41
2022-10-05T20:16:09.398Z,101167.34
2022-10-05T20:18:47.222Z,101169.16
2022-10-05T20:21:39.056Z,101165.50
2022-10-05T20:24:07.083Z,101169.34
2022-10-05T20:26:39.526Z,101165.31
2022-10-05T20:29:08.584Z,101162.28
2022-10-05T20:31:35.168Z,101174.69
2022-10-05T20:34:01.913Z,101162.06
2022-10-05T20:36:28.483Z,101178.84
2022-10-05T20:38:55.374Z,101188.00
2022-10-05T20:41:21.853Z,101192.50
2022-10-05T20:43:49.779Z,101181.75
2022-10-05T20:46:16.326Z,101205.13
2022-10-05T20:48:42.884Z,101205.25
2022-10-05T20:51:09.415Z,101199.94
2022-10-05T20:53:35.975Z,101201.47
2022-10-05T20:56:02.553Z,101205.25
2022-10-05T20:58:29.711Z,101180.56
2022-10-05T21:00:57.965Z,101191.56
2022-10-05T21:03:24.670Z,101202.94
2022-10-05T21:05:51.520Z,101204.13
2022-10-05T21:08:18.283Z,101204.28
2022-10-05T21:10:45.982Z,101204.53
2022-10-05T21:13:12.823Z,101222.56
2022-10-05T21:15:40.463Z,101233.34
2022-10-05T21:18:08.726Z,101223.78
2022-10-05T21:20:35.282Z,101211.25
2022-10-05T21:23:01.968Z,101216.88
2022-10-05T21:25:28.584Z,101231.41
2022-10-05T21:27:55.323Z,101246.78
2022-10-05T21:30:21.970Z,101233.09
2022-10-05T21:32:48.688Z,101250.09
2022-10-05T21:35:16.681Z,101236.41
2022-10-05T21:37:43.274Z,101239.91
2022-10-05T21:40:10.652Z,101234.28
2022-10-05T21:42:37.326Z,101254.16
2022-10-05T21:45:04.592Z,101249.34
2022-10-05T21:47:31.266Z,101232.16
2022-10-05T21:49:57.854Z,101248.59
2022-10-05T21:52:26.096Z,101252.09
2022-10-05T21:54:52.635Z,101252.78
2022-10-05T21:57:19.247Z,101229.50
2022-10-05T21:59:46.176Z,101254.41
2022-10-05T22:02:12.761Z,101256.44
2022-10-05T22:04:39.364Z,101168.16
2022-10-05T22:07:14.108Z,101258.91
2022-10-05T22:09:42.194Z,101263.72
2022-10-05T22:12:08.710Z,101257.63
2022-10-05T22:14:35.250Z,101264.31
2022-10-05T22:17:01.802Z,101275.66
2022-10-05T22:19:28.503Z,101278.00
2022-10-05T22:21:55.049Z,101282.91
2022-10-05T22:24:21.733Z,101266.00
2022-10-05T22:26:50.438Z,101263.06
2022-10-05T22:29:17.395Z,101293.56
2022-10-05T22:31:44.892Z,101262.53
2022-10-05T22:34:11.632Z,101294.69
2022-10-05T22:36:38.150Z,101294.06
2022-10-05T22:39:04.815Z,101285.28
2022-10-05T22:41:31.398Z,101299.34
2022-10-05T22:43:59.825Z,101313.50
2022-10-05T22:46:26.437Z,101302.00
2022-10-05T22:48:53.382Z,101273.94
2022-10-05T22:51:19.915Z,101325.44
2022-10-05T22:53:46.523Z,101330.28
2022-10-05T22:56:13.886Z,101328.59
2022-10-05T22:58:42.019Z,101356.03
2022-10-05T23:01:12.340Z,101356.47
2022-10-05T23:03:39.369Z,101394.03
2022-10-05T23:06:08.159Z,101381.34
2022-10-05T23:08:36.313Z,101435.09
2022-10-05T23:11:03.771Z,101438.53
2022-10-05T23:13:30.913Z,101447.78
2022-10-05T23:15:57.749Z,101441.13
2022-10-05T23:18:26.297Z,101452.03
2022-10-05T23:20:54.095Z,101411.34
2022-10-05T23:23:20.902Z,101434.72
2022-10-05T23:25:47.442Z,101453.63
2022-10-05T23:28:14.185Z,101448.78
2022-10-05T23:30:40.914Z,101422.09
2022-10-05T23:33:07.546Z,101440.63
2022-10-05T23:35:35.414Z,101454.66
2022-10-05T23:38:02.035Z,101455.72
2022-10-05T23:40:28.545Z,101460.91
2022-10-05T23:42:55.104Z,101472.72
2022-10-05T23:45:21.849Z,101468.03
2022-10-05T23:47:48.406Z,101473.81
2022-10-05T23:50:15.188Z,101482.88
2022-10-05T23:52:44.279Z,101485.69
2022-10-05T23:55:10.832Z,101491.16
2022-10-05T23:57:37.440Z,101466.78
